sensor_id;sensor_type;location;lat;lon;timestamp;temperature;humidity
45735;DHT22;31446;49.632;8.328;2022-12-18T00:10:36;-5.40;99.90
45735;DHT22;31446;49.632;8.328;2022-12-18T00:25:43;-5.40;99.90
45735;DHT22;31446;49.632;8.328;2022-12-18T00:40:49;-5.30;99.90
45735;DHT22;31446;49.632;8.328;2022-12-18T00:55:56;-5.70;99.90
45735;DHT22;31446;49.632;8.328;2022-12-18T01:11:07;-5.80;99.90
45735;DHT22;31446;49.632;8.328;2022-12-18T01:26:15;-6.10;99.90
45735;DHT22;31446;49.632;8.328;2022-12-18T01:41:24;-6.40;99.90
45735;DHT22;31446;49.632;8.328;2022-12-18T01:56:50;-6.50;99.90
45735;DHT22;31446;49.632;8.328;2022-12-18T02:12:01;-6.60;99.90
45735;DHT22;31446;49.632;8.328;2022-12-18T02:27:12;-6.50;99.90
45735;DHT22;31446;49.632;8.328;2022-12-18T02:42:19;-6.20;99.90
45735;DHT22;31446;49.632;8.328;2022-12-18T02:57:36;-6.30;99.90
45735;DHT22;31446;49.632;8.328;2022-12-18T03:12:50;-6.50;99.90
45735;DHT22;31446;49.632;8.328;2022-12-18T03:27:59;-6.80;99.90
45735;DHT22;31446;49.632;8.328;2022-12-18T03:43:10;-6.50;99.90
45735;DHT22;31446;49.632;8.328;2022-12-18T03:58:20;-6.90;99.90
45735;DHT22;31446;49.632;8.328;2022-12-18T04:13:33;-6.80;99.90
45735;DHT22;31446;49.632;8.328;2022-12-18T04:28:40;-6.90;99.90
45735;DHT22;31446;49.632;8.328;2022-12-18T04:43:47;-7.30;99.90
45735;DHT22;31446;49.632;8.328;2022-12-18T04:58:53;-7.30;99.90
45735;DHT22;31446;49.632;8.328;2022-12-18T05:13:59;-7.40;99.90
45735;DHT22;31446;49.632;8.328;2022-12-18T05:29:06;-7.60;99.90
45735;DHT22;31446;49.632;8.328;2022-12-18T05:44:15;-7.60;99.90
45735;DHT22;31446;49.632;8.328;2022-12-18T05:59:22;-7.40;99.90
45735;DHT22;31446;49.632;8.328;2022-12-18T06:14:28;-7.30;99.90
45735;DHT22;31446;49.632;8.328;2022-12-18T06:29:35;-7.30;99.90
45735;DHT22;31446;49.632;8.328;2022-12-18T06:44:41;-7.40;99.90
45735;DHT22;31446;49.632;8.328;2022-12-18T06:59:47;-7.50;99.90
45735;DHT22;31446;49.632;8.328;2022-12-18T07:14:54;-7.40;99.90
45735;DHT22;31446;49.632;8.328;2022-12-18T07:30:00;-7.60;99.90
45735;DHT22;31446;49.632;8.328;2022-12-18T07:45:07;-7.40;99.90
45735;DHT22;31446;49.632;8.328;2022-12-18T08:00:15;-7.30;99.90
45735;DHT22;31446;49.632;8.328;2022-12-18T08:15:21;-7.50;99.90
45735;DHT22;31446;49.632;8.328;2022-12-18T08:30:28;-7.20;99.90
45735;DHT22;31446;49.632;8.328;2022-12-18T08:45:34;-6.60;99.90
45735;DHT22;31446;49.632;8.328;2022-12-18T09:00:40;-6.20;99.90
45735;DHT22;31446;49.632;8.328;2022-12-18T09:15:51;-5.70;99.90
45735;DHT22;31446;49.632;8.328;2022-12-18T09:30:57;-5.20;99.90
45735;DHT22;31446;49.632;8.328;2022-12-18T09:46:07;-4.80;99.90
45735;DHT22;31446;49.632;8.328;2022-12-18T10:01:17;-4.90;99.90
45735;DHT22;31446;49.632;8.328;2022-12-18T10:16:32;-5.50;99.90
45735;DHT22;31446;49.632;8.328;2022-12-18T10:31:39;-4.90;99.90
45735;DHT22;31446;49.632;8.328;2022-12-18T10:46:49;-4.30;99.90
45735;DHT22;31446;49.632;8.328;2022-12-18T11:01:57;-3.30;99.90
45735;DHT22;31446;49.632;8.328;2022-12-18T11:17:04;-2.30;99.90
45735;DHT22;31446;49.632;8.328;2022-12-18T11:32:35;-3.20;99.90
45735;DHT22;31446;49.632;8.328;2022-12-18T11:47:48;-2.70;99.90
45735;DHT22;31446;49.632;8.328;2022-12-18T12:18:43;-1.40;99.90
45735;DHT22;31446;49.632;8.328;2022-12-18T12:33:59;-1.50;99.90
45735;DHT22;31446;49.632;8.328;2022-12-18T12:49:11;-2.50;99.90
45735;DHT22;31446;49.632;8.328;2022-12-18T13:04:23;-2.80;99.90
45735;DHT22;31446;49.632;8.328;2022-12-18T13:19:32;-2.70;99.90
45735;DHT22;31446;49.632;8.328;2022-12-18T13:34:39;-2.60;99.90
45735;DHT22;31446;49.632;8.328;2022-12-18T13:49:46;-2.70;99.90
45735;DHT22;31446;49.632;8.328;2022-12-18T14:04:53;-3.20;99.90
45735;DHT22;31446;49.632;8.328;2022-12-18T14:20:00;-3.10;99.90
45735;DHT22;31446;49.632;8.328;2022-12-18T14:35:13;-3.40;99.90
45735;DHT22;31446;49.632;8.328;2022-12-18T14:50:19;-3.40;99.90
45735;DHT22;31446;49.632;8.328;2022-12-18T15:05:29;-3.90;99.90
45735;DHT22;31446;49.632;8.328;2022-12-18T15:20:42;-4.30;99.90
45735;DHT22;31446;49.632;8.328;2022-12-18T15:35:56;-4.40;99.90
45735;DHT22;31446;49.632;8.328;2022-12-18T15:51:02;-4.50;99.90
45735;DHT22;31446;49.632;8.328;2022-12-18T16:06:09;-4.40;99.90
45735;DHT22;31446;49.632;8.328;2022-12-18T16:21:16;-4.20;99.90
45735;DHT22;31446;49.632;8.328;2022-12-18T16:36:22;-4.00;99.90
45735;DHT22;31446;49.632;8.328;2022-12-18T16:51:28;-3.60;99.90
45735;DHT22;31446;49.632;8.328;2022-12-18T17:06:39;-3.50;99.90
45735;DHT22;31446;49.632;8.328;2022-12-18T17:21:48;-3.30;99.90
45735;DHT22;31446;49.632;8.328;2022-12-18T17:36:54;-3.40;99.90
45735;DHT22;31446;49.632;8.328;2022-12-18T17:52:00;-3.20;99.90
45735;DHT22;31446;49.632;8.328;2022-12-18T18:07:07;-3.60;99.90
45735;DHT22;31446;49.632;8.328;2022-12-18T18:22:13;-3.30;99.90
45735;DHT22;31446;49.632;8.328;2022-12-18T18:37:19;-3.30;99.90
45735;DHT22;31446;49.632;8.328;2022-12-18T18:52:25;-3.10;99.90
45735;DHT22;31446;49.632;8.328;2022-12-18T19:07:31;-3.00;99.90
45735;DHT22;31446;49.632;8.328;2022-12-18T19:22:38;-2.90;99.90
45735;DHT22;31446;49.632;8.328;2022-12-18T19:37:44;-2.60;99.90
45735;DHT22;31446;49.632;8.328;2022-12-18T19:52:50;-2.60;99.90
45735;DHT22;31446;49.632;8.328;2022-12-18T20:07:57;-2.50;99.90
45735;DHT22;31446;49.632;8.328;2022-12-18T20:23:03;-2.20;99.90
45735;DHT22;31446;49.632;8.328;2022-12-18T20:38:09;-2.20;99.90
45735;DHT22;31446;49.632;8.328;2022-12-18T20:53:15;-2.20;99.90
45735;DHT22;31446;49.632;8.328;2022-12-18T21:08:24;-1.90;99.90
45735;DHT22;31446;49.632;8.328;2022-12-18T21:23:30;-1.50;99.90
45735;DHT22;31446;49.632;8.328;2022-12-18T21:38:37;-1.50;99.90
45735;DHT22;31446;49.632;8.328;2022-12-18T21:53:44;-1.30;99.90
45735;DHT22;31446;49.632;8.328;2022-12-18T22:08:50;-1.80;99.90
45735;DHT22;31446;49.632;8.328;2022-12-18T22:23:58;-1.70;99.90
45735;DHT22;31446;49.632;8.328;2022-12-18T22:39:06;-1.70;99.90
45735;DHT22;31446;49.632;8.328;2022-12-18T22:54:13;-1.80;99.90
45735;DHT22;31446;49.632;8.328;2022-12-18T23:09:19;-1.70;99.90
45735;DHT22;31446;49.632;8.328;2022-12-18T23:24:27;-1.70;99.90
45735;DHT22;31446;49.632;8.328;2022-12-18T23:39:34;-1.70;99.90
45735;DHT22;31446;49.632;8.328;2022-12-18T23:54:40;-1.70;99.90
